createdAt,value
2023-01-31T00:00:30.135Z,102452.94
2023-01-31T00:03:15.395Z,102458.13
2023-01-31T00:06:10.105Z,102427.97
2023-01-31T00:08:56.134Z,102445.19
2023-01-31T00:11:41.168Z,102435.72
2023-01-31T00:14:26.213Z,102428.84
2023-01-31T00:17:11.540Z,102435.72
2023-01-31T00:19:56.822Z,102426.28
2023-01-31T00:22:41.847Z,102423.75
2023-01-31T00:25:27.154Z,102429.72
2023-01-31T00:28:12.340Z,102433.13
2023-01-31T00:30:58.646Z,102427.97
2023-01-31T00:33:45.292Z,102434.88
2023-01-31T00:36:32.902Z,102427.13
2023-01-31T00:39:17.870Z,102432.28
2023-01-31T00:42:03.266Z,102394.47
2023-01-31T00:44:48.114Z,102414.16
2023-01-31T00:47:33.256Z,102408.09
2023-01-31T00:50:18.193Z,102384.00
2023-01-31T00:53:03.861Z,102385.63
2023-01-31T00:55:54.093Z,102399.41
2023-01-31T00:58:42.426Z,102387.41
2023-01-31T01:01:29.233Z,102368.38
2023-01-31T01:04:14.924Z,102352.88
2023-01-31T01:06:59.935Z,102370.88
2023-01-31T01:09:45.240Z,102375.06
2023-01-31T01:12:30.173Z,102381.03
2023-01-31T01:15:15.463Z,102383.66
2023-01-31T01:18:00.822Z,102374.28
2023-01-31T01:20:45.860Z,102394.06
2023-01-31T01:23:30.863Z,102396.66
2023-01-31T01:26:22.313Z,102400.13
2023-01-31T01:29:07.997Z,102388.06
2023-01-31T01:31:53.134Z,102398.44
2023-01-31T01:34:38.401Z,102405.34
2023-01-31T01:37:24.210Z,102402.78
2023-01-31T01:40:10.225Z,102360.66
2023-01-31T01:42:55.345Z,102392.44
2023-01-31T01:45:40.484Z,102371.84
2023-01-31T01:48:27.721Z,102393.28
2023-01-31T01:51:15.959Z,102385.53
2023-01-31T01:54:05.950Z,102384.66
2023-01-31T01:56:54.119Z,102382.97
2023-01-31T01:59:45.825Z,102370.03
2023-01-31T02:02:31.040Z,102375.19
2023-01-31T02:05:24.430Z,102371.75
2023-01-31T02:08:10.398Z,102365.69
2023-01-31T02:11:17.648Z,102357.06
2023-01-31T02:14:09.564Z,102361.34
2023-01-31T02:16:55.535Z,102368.22
2023-01-31T02:20:01.262Z,102351.72
2023-01-31T02:23:20.530Z,102351.63
2023-01-31T02:26:28.026Z,102363.69
2023-01-31T02:29:28.060Z,102346.56
2023-01-31T02:32:32.087Z,102366.38
2023-01-31T02:35:38.608Z,102354.38
2023-01-31T02:38:29.897Z,102347.53
2023-01-31T02:41:40.472Z,102359.50
2023-01-31T02:44:50.128Z,102360.38
2023-01-31T02:47:47.366Z,102353.50
2023-01-31T02:50:45.185Z,102368.97
2023-01-31T02:53:37.319Z,102365.53
2023-01-31T02:56:27.349Z,102350.94
2023-01-31T02:59:18.619Z,102339.75
2023-01-31T03:02:04.776Z,102335.47
2023-01-31T03:04:49.970Z,102326.00
2023-01-31T03:07:38.381Z,102325.13
2023-01-31T03:11:03.093Z,102311.38
2023-01-31T03:14:15.592Z,102310.50
2023-01-31T03:17:33.284Z,102307.97
2023-01-31T03:20:36.466Z,102313.13
2023-01-31T03:23:26.776Z,102292.56
2023-01-31T03:26:12.999Z,102313.16
2023-01-31T03:29:01.574Z,102312.25
2023-01-31T03:32:04.452Z,102305.31
2023-01-31T03:34:49.914Z,102312.16
2023-01-31T03:37:50.599Z,102297.53
2023-01-31T03:40:49.667Z,102289.06
2023-01-31T03:44:04.318Z,102290.75
2023-01-31T03:47:13.146Z,102281.22
2023-01-31T03:50:03.332Z,102264.84
2023-01-31T03:53:09.341Z,102276.72
2023-01-31T03:56:01.084Z,102267.25
2023-01-31T03:58:51.325Z,102262.94
2023-01-31T04:01:41.855Z,102242.34
2023-01-31T04:04:40.852Z,102251.72
2023-01-31T04:07:26.636Z,102248.25
2023-01-31T04:10:16.756Z,102241.28
2023-01-31T04:13:02.135Z,102238.59
2023-01-31T04:15:46.890Z,102214.47
2023-01-31T04:18:32.127Z,102243.41
2023-01-31T04:21:17.343Z,102236.25
2023-01-31T04:24:02.501Z,102240.41
2023-01-31T04:26:48.219Z,102237.72
2023-01-31T04:29:33.662Z,102227.28
2023-01-31T04:32:18.569Z,102239.19
2023-01-31T04:35:04.181Z,102239.88
2023-01-31T04:37:48.973Z,102225.19
2023-01-31T04:40:33.972Z,102208.84
2023-01-31T04:43:19.267Z,102241.41
2023-01-31T04:46:04.733Z,102250.81
2023-01-31T04:48:49.965Z,102257.63
2023-01-31T04:51:35.477Z,102240.44
2023-01-31T04:54:20.664Z,102247.19
2023-01-31T04:57:05.858Z,102261.78
2023-01-31T04:59:52.106Z,102253.06
2023-01-31T05:02:37.189Z,102230.72
2023-01-31T05:05:22.610Z,102249.56
2023-01-31T05:08:07.782Z,102234.84
2023-01-31T05:11:03.021Z,102241.66
2023-01-31T05:13:49.386Z,102231.28
2023-01-31T05:16:34.507Z,102245.78
2023-01-31T05:19:19.645Z,102236.22
2023-01-31T05:22:05.183Z,102226.75
2023-01-31T05:24:50.835Z,102246.47
2023-01-31T05:27:36.073Z,102235.97
2023-01-31T05:30:24.148Z,102228.16
2023-01-31T05:33:09.299Z,102233.22
2023-01-31T05:35:54.635Z,102234.03
2023-01-31T05:38:39.902Z,102225.44
2023-01-31T05:41:24.873Z,102221.84
2023-01-31T05:44:10.909Z,102223.53
2023-01-31T05:46:55.830Z,102216.53
2023-01-31T05:49:41.055Z,102220.81
2023-01-31T05:52:26.660Z,102205.44
2023-01-31T05:55:11.696Z,102201.88
2023-01-31T05:57:57.448Z,102209.44
2023-01-31T06:00:42.398Z,102219.84
2023-01-31T06:03:27.530Z,102217.31
2023-01-31T06:06:13.842Z,102202.78
2023-01-31T06:08:59.233Z,102206.19
2023-01-31T06:11:44.689Z,102201.84
2023-01-31T06:14:29.921Z,102192.38
2023-01-31T06:17:15.324Z,102182.78
2023-01-31T06:20:00.338Z,102162.16
2023-01-31T06:22:45.563Z,102169.66
2023-01-31T06:25:31.964Z,102166.06
2023-01-31T06:28:18.089Z,102172.09
2023-01-31T06:31:11.307Z,102174.75
2023-01-31T06:33:56.464Z,102189.44
2023-01-31T06:36:41.806Z,102184.22
2023-01-31T06:39:27.011Z,102192.84
2023-01-31T06:42:11.959Z,102201.50
2023-01-31T06:44:57.387Z,102189.38
2023-01-31T06:47:45.260Z,102194.63
2023-01-31T06:50:30.355Z,102194.63
2023-01-31T06:53:15.723Z,102193.84
2023-01-31T06:56:00.805Z,102198.22
2023-01-31T06:58:46.102Z,102209.56
2023-01-31T07:01:31.563Z,102194.91
2023-01-31T07:04:16.386Z,102192.31
2023-01-31T07:07:01.788Z,102193.25
2023-01-31T07:09:47.017Z,102189.88
2023-01-31T07:12:32.505Z,102202.78
2023-01-31T07:15:18.312Z,102183.97
2023-01-31T07:18:03.431Z,102202.00
2023-01-31T07:20:50.072Z,102190.78
2023-01-31T07:23:35.225Z,102168.34
2023-01-31T07:26:20.557Z,102170.94
2023-01-31T07:29:05.691Z,102174.44
2023-01-31T07:31:51.448Z,102178.78
2023-01-31T07:34:36.625Z,102179.50
2023-01-31T07:37:21.829Z,102171.69
2023-01-31T07:40:07.657Z,102184.59
2023-01-31T07:42:58.026Z,102179.63
2023-01-31T07:45:43.020Z,102194.09
2023-01-31T07:48:28.207Z,102191.53
2023-01-31T07:51:13.560Z,102189.88
2023-01-31T07:53:58.756Z,102199.34
2023-01-31T07:56:44.118Z,102199.28
2023-01-31T07:59:29.773Z,102195.72
2023-01-31T08:02:35.832Z,102204.22
2023-01-31T08:05:21.709Z,102197.16
2023-01-31T08:08:12.943Z,102184.09
2023-01-31T08:10:58.036Z,102181.34
2023-01-31T08:13:43.307Z,102168.50
2023-01-31T08:16:29.300Z,102171.72
2023-01-31T08:19:14.369Z,102186.44
2023-01-31T08:21:59.216Z,102179.53
2023-01-31T08:24:44.463Z,102191.31
2023-01-31T08:27:30.339Z,102180.78
2023-01-31T08:30:15.469Z,102185.81
2023-01-31T08:33:02.309Z,102175.28
2023-01-31T08:35:47.566Z,102191.78
2023-01-31T08:38:32.719Z,102187.44
2023-01-31T08:41:19.622Z,102192.56
2023-01-31T08:44:06.163Z,102171.66
2023-01-31T08:46:51.288Z,102181.03
2023-01-31T08:49:37.047Z,102177.44
2023-01-31T08:52:21.954Z,102179.94
2023-01-31T08:55:09.266Z,102158.06
2023-01-31T08:57:59.884Z,102163.94
2023-01-31T09:00:45.569Z,102153.34
2023-01-31T09:03:31.065Z,102154.78
2023-01-31T09:06:19.340Z,102140.88
2023-01-31T09:09:04.608Z,102161.25
2023-01-31T09:11:49.552Z,102154.16
2023-01-31T09:14:34.563Z,102155.84
2023-01-31T09:17:19.508Z,102167.66
2023-01-31T09:20:06.687Z,102147.56
2023-01-31T09:22:51.643Z,102158.72
2023-01-31T09:25:45.621Z,102155.06
2023-01-31T09:28:33.192Z,102168.81
2023-01-31T09:31:20.770Z,102165.28
2023-01-31T09:34:06.295Z,102146.22
2023-01-31T09:36:51.463Z,102165.81
2023-01-31T09:39:36.776Z,102157.78
2023-01-31T09:42:27.552Z,102164.53
2023-01-31T09:45:29.739Z,102134.22
2023-01-31T09:48:22.633Z,102148.72
2023-01-31T09:51:13.009Z,102136.53
2023-01-31T09:53:58.061Z,102137.25
2023-01-31T09:56:54.589Z,102156.81
2023-01-31T09:59:46.492Z,102154.19
2023-01-31T10:02:42.549Z,102160.03
2023-01-31T10:05:49.823Z,102158.13
2023-01-31T10:08:53.127Z,102154.38
2023-01-31T10:11:47.389Z,102157.63
2023-01-31T10:14:38.657Z,102125.78
2023-01-31T10:17:33.783Z,102150.03
2023-01-31T10:20:40.915Z,102162.06
2023-01-31T10:23:33.949Z,102162.00
2023-01-31T10:26:36.922Z,102149.09
2023-01-31T10:29:34.261Z,102150.84
2023-01-31T10:32:31.844Z,102162.91
2023-01-31T10:35:31.697Z,102172.44
2023-01-31T10:38:30.205Z,102169.81
2023-01-31T10:41:25.691Z,102187.97
2023-01-31T10:44:22.045Z,102190.53
2023-01-31T10:47:18.587Z,102186.97
2023-01-31T10:50:42.168Z,102186.88
2023-01-31T10:53:52.954Z,102188.53
2023-01-31T10:56:42.896Z,102189.97
2023-01-31T10:59:28.047Z,102186.56
2023-01-31T11:02:23.092Z,102160.66
2023-01-31T11:05:18.731Z,102178.59
2023-01-31T11:08:20.890Z,102172.19
2023-01-31T11:11:11.871Z,102181.50
2023-01-31T11:14:01.410Z,102162.09
2023-01-31T11:16:48.576Z,102154.56
2023-01-31T11:19:39.109Z,102144.59
2023-01-31T11:22:31.409Z,102133.97
2023-01-31T11:25:25.694Z,102125.19
2023-01-31T11:28:22.331Z,102142.38
2023-01-31T11:31:19.415Z,102146.75
2023-01-31T11:34:17.719Z,102138.88
2023-01-31T11:37:14.661Z,102123.94
2023-01-31T11:40:03.648Z,102128.03
2023-01-31T11:42:55.762Z,102116.28
2023-01-31T11:45:45.626Z,102107.16
2023-01-31T11:48:41.858Z,102113.28
2023-01-31T11:51:31.713Z,102111.63
2023-01-31T11:54:23.680Z,102111.56
2023-01-31T11:57:24.842Z,102083.06
2023-01-31T12:00:25.375Z,102116.47
2023-01-31T12:03:15.985Z,102103.28
2023-01-31T12:06:06.051Z,102092.75
2023-01-31T12:08:54.208Z,102091.69
2023-01-31T12:11:51.995Z,102086.22
2023-01-31T12:14:42.216Z,102090.34
2023-01-31T12:17:30.835Z,102089.81
2023-01-31T12:20:28.649Z,102077.91
2023-01-31T12:23:20.536Z,102081.22
2023-01-31T12:26:17.113Z,102063.41
2023-01-31T12:29:42.363Z,102076.25
2023-01-31T12:32:46.224Z,102069.63
2023-01-31T12:36:03.610Z,102058.56
2023-01-31T12:38:48.590Z,102054.22
2023-01-31T12:41:36.465Z,102065.88
2023-01-31T12:44:37.267Z,102066.66
2023-01-31T12:47:46.304Z,102059.22
2023-01-31T12:50:55.056Z,102052.16
2023-01-31T12:53:49.156Z,102038.69
2023-01-31T12:56:49.371Z,102019.66
2023-01-31T12:59:49.440Z,102036.81
2023-01-31T13:02:43.627Z,102027.81
2023-01-31T13:05:37.326Z,102031.72
2023-01-31T13:08:27.209Z,102034.63
2023-01-31T13:11:20.480Z,102032.03
2023-01-31T13:14:11.893Z,102018.50
2023-01-31T13:17:01.331Z,102006.84
2023-01-31T13:19:50.628Z,102014.53
2023-01-31T13:22:46.651Z,102028.28
2023-01-31T13:25:39.758Z,102031.75
2023-01-31T13:28:37.867Z,102028.34
2023-01-31T13:31:33.962Z,102039.19
2023-01-31T13:34:34.619Z,102044.66
2023-01-31T13:37:23.278Z,102052.78
2023-01-31T13:40:19.631Z,102060.00
2023-01-31T13:43:13.729Z,102058.22
2023-01-31T13:46:05.417Z,102050.19
2023-01-31T13:48:57.714Z,102049.97
2023-01-31T13:51:58.666Z,102038.47
2023-01-31T13:54:49.603Z,102046.34
2023-01-31T13:57:46.493Z,102054.19
2023-01-31T14:00:44.244Z,102050.03
2023-01-31T14:03:29.473Z,102046.03
2023-01-31T14:06:14.564Z,102023.56
2023-01-31T14:08:59.610Z,102038.31
2023-01-31T14:11:44.938Z,102039.38
2023-01-31T14:14:37.283Z,102021.38
2023-01-31T14:17:22.146Z,102015.50
2023-01-31T14:20:25.864Z,102013.84
2023-01-31T14:23:31.625Z,102015.22
2023-01-31T14:26:32.726Z,102014.28
2023-01-31T14:29:27.291Z,102012.75
2023-01-31T14:32:24.229Z,102001.88
2023-01-31T14:35:12.104Z,102013.75
2023-01-31T14:38:27.663Z,102012.09
2023-01-31T14:41:25.054Z,102009.13
2023-01-31T14:44:09.853Z,102016.91
2023-01-31T14:47:25.918Z,102006.72
2023-01-31T14:50:29.075Z,102024.31
2023-01-31T14:53:49.774Z,102030.91
2023-01-31T14:56:56.486Z,102038.03
2023-01-31T14:59:53.881Z,102021.47
2023-01-31T15:03:01.611Z,102032.91
2023-01-31T15:06:08.462Z,102045.34
2023-01-31T15:09:15.532Z,102044.91
2023-01-31T15:12:01.257Z,102044.06
2023-01-31T15:14:49.146Z,102047.00
2023-01-31T15:17:39.273Z,102050.63
2023-01-31T15:20:36.866Z,102051.88
2023-01-31T15:23:31.643Z,102060.22
2023-01-31T15:26:18.903Z,102059.16
2023-01-31T15:29:04.976Z,102069.09
2023-01-31T15:31:54.796Z,102063.47
2023-01-31T15:34:47.454Z,102076.25
2023-01-31T15:37:35.184Z,102086.72
2023-01-31T15:40:24.022Z,102088.75
2023-01-31T15:43:23.707Z,102070.19
2023-01-31T15:46:21.711Z,102081.84
2023-01-31T15:49:38.583Z,102086.09
2023-01-31T15:52:25.346Z,102087.03
2023-01-31T15:55:14.663Z,102082.09
2023-01-31T15:58:03.009Z,102104.78
2023-01-31T16:00:56.623Z,102112.16
2023-01-31T16:03:43.436Z,102114.22
2023-01-31T16:06:36.565Z,102127.53
2023-01-31T16:09:29.627Z,102112.13
2023-01-31T16:12:16.060Z,102114.88
2023-01-31T16:15:06.110Z,102127.75
2023-01-31T16:17:53.341Z,102134.44
2023-01-31T16:21:15.886Z,102131.47
2023-01-31T16:24:03.926Z,102117.81
2023-01-31T16:27:05.525Z,102135.38
2023-01-31T16:29:58.985Z,102143.28
2023-01-31T16:32:46.485Z,102114.44
2023-01-31T16:35:31.525Z,102142.22
2023-01-31T16:38:21.516Z,102130.09
2023-01-31T16:41:12.622Z,102140.97
2023-01-31T16:43:58.085Z,102139.34
2023-01-31T16:46:45.941Z,102146.63
2023-01-31T16:49:35.543Z,102136.28
2023-01-31T16:52:29.650Z,102129.59
2023-01-31T16:55:17.686Z,102132.41
2023-01-31T16:58:02.942Z,102137.88
2023-01-31T17:00:48.688Z,102133.97
2023-01-31T17:03:36.052Z,102132.63
2023-01-31T17:06:22.351Z,102143.34
2023-01-31T17:09:09.727Z,102145.16
2023-01-31T17:11:56.259Z,102151.25
2023-01-31T17:14:41.436Z,102139.97
2023-01-31T17:17:34.947Z,102135.25
2023-01-31T17:20:21.706Z,102156.78
2023-01-31T17:23:07.047Z,102162.78
2023-01-31T17:25:52.234Z,102165.59
2023-01-31T17:28:37.356Z,102171.34
2023-01-31T17:31:23.739Z,102174.63
2023-01-31T17:34:13.919Z,102175.13
2023-01-31T17:36:59.191Z,102164.78
2023-01-31T17:39:44.304Z,102166.94
2023-01-31T17:42:29.610Z,102170.19
2023-01-31T17:45:18.889Z,102174.84
2023-01-31T17:48:06.132Z,102197.44
2023-01-31T17:50:53.534Z,102182.00
2023-01-31T17:53:47.959Z,102168.38
2023-01-31T17:56:34.610Z,102172.88
2023-01-31T17:59:26.938Z,102182.53
2023-01-31T18:02:12.588Z,102182.88
2023-01-31T18:04:57.979Z,102178.66
2023-01-31T18:07:43.351Z,102202.22
2023-01-31T18:10:28.822Z,102197.88
2023-01-31T18:13:13.631Z,102202.09
2023-01-31T18:16:07.297Z,102181.63
2023-01-31T18:18:53.344Z,102203.09
2023-01-31T18:21:43.901Z,102181.84
2023-01-31T18:24:32.170Z,102194.41
2023-01-31T18:27:17.362Z,102198.78
2023-01-31T18:30:02.671Z,102201.41
2023-01-31T18:32:47.762Z,102195.47
2023-01-31T18:35:33.044Z,102198.94
2023-01-31T18:38:18.212Z,102201.56
2023-01-31T18:41:06.595Z,102206.91
2023-01-31T18:43:51.673Z,102206.09
2023-01-31T18:46:36.731Z,102212.22
2023-01-31T18:49:22.048Z,102217.50
2023-01-31T18:52:08.413Z,102214.13
2023-01-31T18:54:54.235Z,102208.09
2023-01-31T18:57:39.162Z,102189.25
2023-01-31T19:00:24.502Z,102197.84
2023-01-31T19:03:09.767Z,102195.28
2023-01-31T19:05:54.954Z,102192.03
2023-01-31T19:08:40.811Z,102181.63
2023-01-31T19:11:28.370Z,102194.66
2023-01-31T19:14:14.198Z,102194.94
2023-01-31T19:16:59.538Z,102182.03
2023-01-31T19:19:44.611Z,102182.38
2023-01-31T19:22:29.547Z,102185.78
2023-01-31T19:25:14.871Z,102188.31
2023-01-31T19:28:01.041Z,102179.06
2023-01-31T19:30:46.392Z,102174.09
2023-01-31T19:33:31.429Z,102190.34
2023-01-31T19:36:21.683Z,102198.28
2023-01-31T19:39:10.562Z,102205.34
2023-01-31T19:41:55.642Z,102207.00
2023-01-31T19:44:40.503Z,102208.66
2023-01-31T19:47:25.841Z,102207.78
2023-01-31T19:50:11.434Z,102198.38
2023-01-31T19:52:56.707Z,102207.75
2023-01-31T19:55:41.924Z,102211.16
2023-01-31T19:58:31.263Z,102223.19
2023-01-31T20:01:17.107Z,102222.31
2023-01-31T20:04:02.393Z,102217.09
2023-01-31T20:06:48.037Z,102226.66
2023-01-31T20:09:33.313Z,102224.31
2023-01-31T20:12:18.493Z,102242.25
2023-01-31T20:15:05.892Z,102234.63
2023-01-31T20:17:51.269Z,102249.97
2023-01-31T20:20:36.267Z,102253.50
2023-01-31T20:23:21.610Z,102234.63
2023-01-31T20:26:07.212Z,102249.97
2023-01-31T20:28:52.455Z,102253.50
2023-01-31T20:31:38.311Z,102256.03
2023-01-31T20:34:23.462Z,102244.06
2023-01-31T20:37:09.086Z,102239.63
2023-01-31T20:39:54.339Z,102234.44
2023-01-31T20:42:39.525Z,102235.28
2023-01-31T20:45:28.388Z,102219.00
2023-01-31T20:48:14.063Z,102214.97
2023-01-31T20:50:59.874Z,102232.47
2023-01-31T20:53:45.354Z,102227.44
2023-01-31T20:56:30.514Z,102208.81
2023-01-31T20:59:15.561Z,102234.84
2023-01-31T21:02:00.689Z,102223.84
2023-01-31T21:04:46.020Z,102224.03
2023-01-31T21:07:31.102Z,102217.38
2023-01-31T21:10:16.249Z,102238.81
2023-01-31T21:13:01.551Z,102237.03
2023-01-31T21:15:55.039Z,102244.03
2023-01-31T21:18:42.845Z,102239.84
2023-01-31T21:21:28.045Z,102235.59
2023-01-31T21:24:13.488Z,102246.97
2023-01-31T21:26:58.898Z,102251.31
2023-01-31T21:29:44.433Z,102246.34
2023-01-31T21:32:29.331Z,102227.63
2023-01-31T21:35:14.708Z,102242.38
2023-01-31T21:37:59.802Z,102232.09
2023-01-31T21:40:45.007Z,102204.88
2023-01-31T21:43:30.638Z,102233.31
2023-01-31T21:46:15.946Z,102220.50
2023-01-31T21:49:01.459Z,102217.09
2023-01-31T21:51:46.679Z,102211.31
2023-01-31T21:54:32.438Z,102221.78
2023-01-31T21:57:17.469Z,102239.19
2023-01-31T22:00:02.490Z,102231.41
2023-01-31T22:02:51.743Z,102236.88
2023-01-31T22:05:36.775Z,102230.09
2023-01-31T22:08:21.878Z,102235.41
2023-01-31T22:11:10.281Z,102237.31
2023-01-31T22:13:56.283Z,102245.09
2023-01-31T22:16:42.316Z,102243.47
2023-01-31T22:19:27.321Z,102245.38
2023-01-31T22:22:12.346Z,102230.06
2023-01-31T22:24:57.306Z,102248.19
2023-01-31T22:27:42.434Z,102240.41
2023-01-31T22:30:27.701Z,102236.31
2023-01-31T22:33:13.327Z,102239.97
2023-01-31T22:35:58.402Z,102226.41
2023-01-31T22:38:45.283Z,102229.84
2023-01-31T22:41:30.501Z,102242.59
2023-01-31T22:44:15.591Z,102240.09
2023-01-31T22:47:00.970Z,102230.69
2023-01-31T22:49:46.259Z,102219.78
2023-01-31T22:52:31.369Z,102215.56
2023-01-31T22:55:16.389Z,102223.22
2023-01-31T22:58:01.678Z,102238.91
2023-01-31T23:00:47.724Z,102223.38
2023-01-31T23:03:32.808Z,102235.41
2023-01-31T23:06:18.253Z,102236.25
2023-01-31T23:09:03.613Z,102208.16
2023-01-31T23:11:48.865Z,102237.22
2023-01-31T23:14:34.096Z,102245.19
2023-01-31T23:17:37.580Z,102241.00
2023-01-31T23:20:23.391Z,102244.66
2023-01-31T23:23:08.523Z,102230.06
2023-01-31T23:25:53.475Z,102233.44
2023-01-31T23:28:38.727Z,102235.41
2023-01-31T23:31:23.781Z,102232.06
2023-01-31T23:34:08.787Z,102234.72
2023-01-31T23:36:54.335Z,102234.66
2023-01-31T23:39:39.652Z,102241.53
2023-01-31T23:42:25.097Z,102242.53
2023-01-31T23:45:10.706Z,102241.69
2023-01-31T23:47:56.139Z,102229.69
2023-01-31T23:50:41.380Z,102225.34
2023-01-31T23:53:28.077Z,102224.47
2023-01-31T23:56:13.194Z,102188.50
2023-01-31T23:58:58.376Z,102215.94
